createdAt,value
2019-05-29T00:00:14.328Z,96.00
2019-05-29T00:06:16.208Z,96.10
2019-05-29T00:12:21.079Z,96.10
2019-05-29T00:18:21.955Z,96.10
2019-05-29T00:24:25.332Z,96.10
2019-05-29T00:30:27.349Z,95.80
2019-05-29T00:36:33.820Z,95.10
2019-05-29T00:42:38.080Z,93.60
2019-05-29T00:48:40.312Z,93.30
2019-05-29T00:54:42.334Z,93.70
2019-05-29T01:00:44.526Z,93.10
2019-05-29T01:06:46.199Z,92.70
2019-05-29T01:12:49.913Z,92.80
2019-05-29T01:18:51.682Z,92.60
2019-05-29T01:24:54.509Z,93.20
2019-05-29T01:30:56.671Z,94.00
2019-05-29T01:37:00.299Z,94.70
2019-05-29T01:43:02.446Z,94.90
2019-05-29T01:49:04.001Z,95.60
2019-05-29T01:55:06.304Z,96.10
2019-05-29T02:01:08.209Z,95.30
2019-05-29T02:07:10.080Z,95.20
2019-05-29T02:13:11.798Z,95.40
2019-05-29T02:19:16.188Z,95.20
2019-05-29T02:25:22.201Z,95.40
2019-05-29T02:31:27.080Z,95.70
2019-05-29T02:37:29.706Z,96.30
2019-05-29T02:43:31.482Z,96.60
2019-05-29T02:49:35.070Z,96.90
2019-05-29T02:55:36.616Z,96.40
2019-05-29T03:01:38.321Z,95.60
2019-05-29T03:07:39.969Z,95.10
2019-05-29T03:13:42.049Z,95.70
2019-05-29T03:19:43.678Z,95.80
2019-05-29T03:25:45.502Z,96.20
2019-05-29T03:31:48.349Z,96.60
2019-05-29T03:37:52.680Z,96.40
2019-05-29T03:44:02.015Z,97.00
2019-05-29T03:50:07.166Z,97.30
2019-05-29T03:56:08.807Z,97.20
2019-05-29T04:02:10.547Z,97.20
2019-05-29T04:08:13.522Z,97.20
2019-05-29T04:14:15.496Z,97.10
2019-05-29T04:20:17.289Z,97.20
2019-05-29T04:26:21.210Z,97.20
2019-05-29T04:32:22.817Z,97.10
2019-05-29T04:38:24.283Z,96.90
2019-05-29T04:44:26.612Z,96.60
2019-05-29T04:50:31.496Z,96.00
2019-05-29T04:56:35.596Z,96.00
2019-05-29T05:02:43.532Z,95.30
2019-05-29T05:08:46.553Z,95.10
2019-05-29T05:14:50.639Z,95.00
2019-05-29T05:20:52.472Z,95.00
2019-05-29T05:26:54.277Z,94.50
2019-05-29T05:32:56.052Z,94.20
2019-05-29T05:38:58.664Z,93.40
2019-05-29T05:45:00.168Z,93.20
2019-05-29T05:51:01.686Z,92.90
2019-05-29T05:57:03.512Z,92.60
2019-05-29T06:03:05.547Z,91.10
2019-05-29T06:09:07.493Z,87.20
2019-05-29T06:15:09.981Z,87.70
2019-05-29T06:21:12.790Z,85.80
2019-05-29T06:27:15.345Z,84.30
2019-05-29T06:33:17.012Z,82.50
2019-05-29T06:39:18.744Z,82.80
2019-05-29T06:45:24.485Z,81.60
2019-05-29T06:51:29.106Z,80.50
2019-05-29T06:57:30.628Z,81.80
2019-05-29T07:03:33.287Z,78.50
2019-05-29T07:09:34.832Z,80.60
2019-05-29T07:15:38.581Z,80.80
2019-05-29T07:21:42.802Z,82.00
2019-05-29T07:27:44.983Z,78.60
2019-05-29T07:33:47.385Z,77.30
2019-05-29T07:39:49.126Z,78.40
2019-05-29T07:45:54.632Z,76.20
2019-05-29T07:51:57.441Z,74.90
2019-05-29T07:58:00.075Z,72.40
2019-05-29T08:04:01.670Z,71.90
2019-05-29T08:10:08.195Z,70.60
2019-05-29T08:16:09.934Z,68.60
2019-05-29T08:22:11.575Z,73.20
2019-05-29T08:28:13.583Z,68.90
2019-05-29T08:34:15.491Z,69.20
2019-05-29T08:40:18.676Z,68.70
2019-05-29T08:46:20.271Z,68.40
2019-05-29T08:52:22.285Z,63.80
2019-05-29T08:58:24.264Z,66.90
2019-05-29T09:04:25.774Z,68.10
2019-05-29T09:10:27.382Z,67.20
2019-05-29T09:16:28.982Z,67.80
2019-05-29T09:22:30.646Z,70.20
2019-05-29T09:28:32.949Z,67.40
2019-05-29T09:34:34.725Z,67.50
2019-05-29T09:40:36.496Z,65.60
2019-05-29T09:46:38.611Z,64.40
2019-05-29T09:52:40.140Z,66.70
2019-05-29T09:58:42.092Z,66.40
2019-05-29T10:04:44.412Z,61.50
2019-05-29T10:10:46.498Z,63.10
2019-05-29T10:16:48.302Z,60.90
2019-05-29T10:22:50.022Z,60.50
2019-05-29T10:29:06.828Z,61.30
2019-05-29T10:34:57.008Z,61.40
2019-05-29T10:41:06.310Z,59.60
2019-05-29T10:47:02.186Z,58.90
2019-05-29T10:53:04.125Z,55.90
2019-05-29T10:59:06.077Z,56.70
2019-05-29T11:05:08.175Z,55.20
2019-05-29T11:11:10.221Z,58.40
2019-05-29T11:17:12.061Z,53.10
2019-05-29T11:23:13.994Z,49.10
2019-05-29T11:35:33.858Z,56.70
2019-05-29T11:41:35.704Z,57.30
2019-05-29T11:47:37.599Z,57.90
2019-05-29T11:53:39.454Z,53.00
2019-05-29T11:59:41.303Z,52.80
2019-05-29T12:05:43.150Z,53.40
2019-05-29T12:11:45.234Z,51.90
2019-05-29T12:17:47.277Z,50.40
2019-05-29T12:23:51.946Z,53.40
2019-05-29T12:29:54.601Z,53.10
2019-05-29T12:35:59.019Z,54.20
2019-05-29T12:42:01.641Z,49.10
2019-05-29T12:48:11.000Z,47.50
2019-05-29T12:54:07.793Z,45.70
2019-05-29T13:00:15.078Z,50.90
2019-05-29T13:06:16.987Z,49.70
2019-05-29T13:12:20.561Z,50.00
2019-05-29T13:18:22.365Z,50.30
2019-05-29T13:24:24.362Z,45.50
2019-05-29T13:30:26.462Z,47.60
2019-05-29T13:36:28.786Z,45.60
2019-05-29T13:42:31.221Z,47.80
2019-05-29T13:48:33.060Z,44.20
2019-05-29T13:54:34.820Z,49.50
2019-05-29T14:00:36.465Z,43.80
2019-05-29T14:06:39.668Z,47.50
2019-05-29T14:12:41.435Z,44.20
2019-05-29T14:18:43.441Z,46.00
2019-05-29T14:24:45.300Z,42.90
2019-05-29T14:30:51.852Z,42.90
2019-05-29T14:36:55.580Z,44.80
2019-05-29T14:42:57.270Z,45.90
2019-05-29T14:48:58.822Z,43.30
2019-05-29T14:55:00.683Z,43.70
2019-05-29T15:01:03.073Z,48.80
2019-05-29T15:07:05.753Z,42.80
2019-05-29T15:13:08.929Z,42.80
2019-05-29T15:19:18.089Z,39.10
2019-05-29T15:25:24.355Z,39.60
2019-05-29T15:31:25.493Z,42.40
2019-05-29T15:37:27.236Z,40.00
2019-05-29T15:43:29.081Z,38.20
2019-05-29T15:49:35.241Z,38.40
2019-05-29T15:59:19.297Z,37.60
2019-05-29T16:05:24.021Z,39.50
2019-05-29T16:11:26.120Z,38.40
2019-05-29T16:17:28.242Z,40.30
2019-05-29T16:23:35.856Z,35.60
2019-05-29T16:29:34.392Z,35.10
2019-05-29T16:35:37.428Z,33.60
2019-05-29T16:41:39.742Z,35.10
2019-05-29T16:47:43.695Z,31.90
2019-05-29T16:53:45.817Z,31.50
2019-05-29T16:59:47.538Z,31.20
2019-05-29T17:05:49.299Z,29.80
2019-05-29T17:11:50.977Z,29.60
2019-05-29T17:17:52.659Z,29.80
2019-05-29T17:30:25.167Z,28.10
2019-05-29T17:36:55.239Z,28.90
2019-05-29T17:42:53.663Z,27.40
2019-05-29T17:48:55.899Z,28.00
2019-05-29T17:54:57.616Z,28.50
2019-05-29T18:00:59.522Z,27.70
2019-05-29T18:07:06.890Z,26.90
2019-05-29T18:13:11.783Z,26.60
2019-05-29T18:19:15.797Z,28.00
2019-05-29T18:25:18.013Z,37.20
2019-05-29T18:31:43.989Z,48.70
2019-05-29T18:37:46.059Z,56.10
2019-05-29T18:43:47.731Z,58.90
2019-05-29T18:49:49.495Z,65.60
2019-05-29T18:55:51.370Z,71.50
2019-05-29T19:01:55.397Z,73.80
2019-05-29T19:07:56.987Z,76.80
2019-05-29T19:13:58.709Z,79.00
2019-05-29T19:20:00.378Z,79.10
2019-05-29T19:26:03.236Z,79.50
2019-05-29T19:32:04.972Z,77.70
2019-05-29T19:38:06.701Z,80.40
2019-05-29T19:44:08.262Z,83.30
2019-05-29T19:50:11.313Z,86.70
2019-05-29T19:56:13.254Z,85.60
2019-05-29T20:02:14.883Z,89.10
2019-05-29T20:08:16.735Z,90.70
2019-05-29T20:14:18.264Z,90.50
2019-05-29T20:20:20.357Z,91.60
2019-05-29T20:26:22.245Z,91.20
2019-05-29T20:32:23.753Z,91.50
2019-05-29T20:38:25.224Z,91.40
2019-05-29T20:44:26.834Z,91.60
2019-05-29T20:50:28.240Z,90.10
2019-05-29T20:56:29.840Z,88.20
2019-05-29T21:02:32.027Z,89.00
2019-05-29T21:08:34.718Z,89.50
2019-05-29T21:14:37.496Z,89.70
2019-05-29T21:20:40.439Z,87.50
2019-05-29T21:26:43.136Z,85.40
2019-05-29T21:32:46.015Z,83.30
2019-05-29T21:38:47.527Z,81.20
2019-05-29T21:44:49.364Z,79.30
2019-05-29T21:50:51.127Z,77.60
2019-05-29T21:56:52.686Z,77.50
2019-05-29T22:02:57.007Z,76.50
2019-05-29T22:08:58.612Z,77.20
2019-05-29T22:15:01.406Z,78.50
2019-05-29T22:21:04.869Z,77.70
2019-05-29T22:27:08.472Z,77.60
2019-05-29T22:33:10.702Z,76.40
2019-05-29T22:39:12.295Z,77.90
2019-05-29T22:45:14.443Z,78.30
2019-05-29T22:51:16.239Z,78.10
2019-05-29T22:57:17.890Z,78.60
2019-05-29T23:03:19.691Z,79.50
2019-05-29T23:09:21.192Z,79.60
2019-05-29T23:15:22.751Z,79.60
2019-05-29T23:21:24.513Z,79.20
2019-05-29T23:27:26.106Z,79.80
2019-05-29T23:33:28.081Z,79.70
2019-05-29T23:39:29.773Z,80.10
2019-05-29T23:45:31.397Z,80.40
2019-05-29T23:51:33.901Z,80.40
2019-05-29T23:57:35.739Z,80.60
